Terminal Aerodrome Forecast
Issued by NWS Boston, MA

Home | Current Version | Previous Version | Text Only | Print | Product List | Glossary On
Versions: 1 2 3 4 5 6 7 8 9 10 11 12 13 14 15 16 17 18 19 20 21 22 23
000
FTUS41 KBOX 181604 AAB
TAFORH
TAF AMD
KORH 181604Z 1816/1912 04007KT 1/4SM FZDZ FZFG OVC002
     FM182300 03006KT 3SM -FZDZ BR OVC004
     FM190600 VRB03KT P6SM OVC008
     FM191100 VRB03KT P6SM BKN025=

USA.gov is the U.S. government's official web portal to all federal, state and local government web resources and services.